createdAt,value
2023-05-05T00:02:18.386Z,12.47
2023-05-05T00:04:55.035Z,13.00
2023-05-05T00:07:30.091Z,12.03
2023-05-05T00:10:16.197Z,13.10
2023-05-05T00:12:52.206Z,12.90
2023-05-05T00:15:31.849Z,12.73
2023-05-05T00:18:06.616Z,11.37
2023-05-05T00:20:45.100Z,11.50
2023-05-05T00:23:20.836Z,10.50
2023-05-05T00:26:09.194Z,11.07
2023-05-05T00:28:45.385Z,12.27
2023-05-05T00:31:25.137Z,11.47
2023-05-05T00:34:02.841Z,11.60
2023-05-05T00:36:38.790Z,11.73
2023-05-05T00:39:15.908Z,11.97
2023-05-05T00:41:54.083Z,11.87
2023-05-05T00:44:44.078Z,10.57
2023-05-05T00:47:19.872Z,11.93
2023-05-05T00:49:56.843Z,11.90
2023-05-05T00:52:37.740Z,12.10
2023-05-05T00:55:32.264Z,12.07
2023-05-05T00:58:15.401Z,12.73
2023-05-05T01:00:54.665Z,11.53
2023-05-05T01:03:33.627Z,12.27
2023-05-05T01:06:20.451Z,11.17
2023-05-05T01:09:06.662Z,12.27
2023-05-05T01:11:52.119Z,12.40
2023-05-05T01:14:45.789Z,12.43
2023-05-05T01:17:23.062Z,13.33
2023-05-05T01:20:12.185Z,13.33
2023-05-05T01:22:51.658Z,15.60
2023-05-05T01:26:21.953Z,13.27
2023-05-05T01:29:46.205Z,14.40
2023-05-05T01:32:27.290Z,12.97
2023-05-05T01:35:08.178Z,14.57
2023-05-05T01:37:54.668Z,13.17
2023-05-05T01:40:34.465Z,14.57
2023-05-05T01:43:13.093Z,14.63
2023-05-05T01:45:50.343Z,13.63
2023-05-05T01:48:52.232Z,14.80
2023-05-05T01:51:30.466Z,14.23
2023-05-05T01:54:12.518Z,14.27
2023-05-05T01:56:52.115Z,14.80
2023-05-05T01:59:32.421Z,13.53
2023-05-05T02:02:08.315Z,13.20
2023-05-05T02:04:49.135Z,13.17
2023-05-05T02:07:23.736Z,14.33
2023-05-05T02:09:59.016Z,13.83
2023-05-05T02:12:34.677Z,14.33
2023-05-05T02:15:13.334Z,14.35
2023-05-05T02:17:48.938Z,14.23
2023-05-05T02:20:32.422Z,15.05
2023-05-05T02:23:10.340Z,15.75
2023-05-05T02:25:52.789Z,12.75
2023-05-05T02:28:30.712Z,14.93
2023-05-05T02:31:06.926Z,13.82
2023-05-05T02:33:43.670Z,15.30
2023-05-05T02:36:28.412Z,14.45
2023-05-05T02:39:21.450Z,13.70
2023-05-05T02:41:59.157Z,14.60
2023-05-05T02:44:42.256Z,14.75
2023-05-05T02:47:21.884Z,15.43
2023-05-05T02:50:06.327Z,14.27
2023-05-05T02:52:44.528Z,14.40
2023-05-05T02:55:24.848Z,14.98
2023-05-05T02:58:11.385Z,15.73
2023-05-05T03:00:56.888Z,16.27
2023-05-05T03:03:50.142Z,16.80
2023-05-05T03:06:29.633Z,16.35
2023-05-05T03:09:14.932Z,17.23
2023-05-05T03:12:03.007Z,17.98
2023-05-05T03:14:47.125Z,14.57
2023-05-05T03:17:23.875Z,15.68
2023-05-05T03:20:03.479Z,15.95
2023-05-05T03:22:47.685Z,16.23
2023-05-05T03:25:28.196Z,17.48
2023-05-05T03:28:04.055Z,16.20
2023-05-05T03:30:39.782Z,16.35
2023-05-05T03:33:15.159Z,16.13
2023-05-05T03:35:49.310Z,16.58
2023-05-05T03:38:26.254Z,16.27
2023-05-05T03:41:11.240Z,17.00
2023-05-05T03:43:50.411Z,16.50
2023-05-05T03:46:24.727Z,17.20
2023-05-05T03:49:01.713Z,14.93
2023-05-05T03:51:41.035Z,16.13
2023-05-05T03:54:18.631Z,17.42
2023-05-05T03:56:55.510Z,16.48
2023-05-05T03:59:32.576Z,17.13
2023-05-05T04:02:08.984Z,18.17
2023-05-05T04:04:45.222Z,18.15
2023-05-05T04:07:23.649Z,18.15
2023-05-05T04:10:17.055Z,17.95
2023-05-05T04:12:54.387Z,16.95
2023-05-05T04:15:30.379Z,16.75
2023-05-05T04:18:06.469Z,16.17
2023-05-05T04:20:43.753Z,16.02
2023-05-05T04:23:21.858Z,16.40
2023-05-05T04:26:01.913Z,17.13
2023-05-05T04:28:42.207Z,15.70
2023-05-05T04:31:22.663Z,17.92
2023-05-05T04:33:59.741Z,17.48
2023-05-05T04:36:34.272Z,17.20
2023-05-05T04:39:13.764Z,16.85
2023-05-05T04:41:52.956Z,16.08
2023-05-05T04:44:29.229Z,16.92
2023-05-05T04:47:06.915Z,15.88
2023-05-05T04:49:46.041Z,15.15
2023-05-05T04:52:24.548Z,17.13
2023-05-05T04:55:13.693Z,17.60
2023-05-05T04:57:46.990Z,15.75
2023-05-05T05:00:25.213Z,15.65
2023-05-05T05:03:06.978Z,15.70
2023-05-05T05:05:43.396Z,14.98
2023-05-05T05:08:22.055Z,14.98
2023-05-05T05:11:09.539Z,15.18
2023-05-05T05:13:45.428Z,15.75
2023-05-05T05:16:22.094Z,14.65
2023-05-05T05:19:04.781Z,15.68
2023-05-05T05:21:42.231Z,16.30
2023-05-05T05:24:19.316Z,15.90
2023-05-05T05:27:04.715Z,15.70
2023-05-05T05:29:40.986Z,16.00
2023-05-05T05:32:26.762Z,15.80
2023-05-05T05:35:04.752Z,13.63
2023-05-05T05:37:42.315Z,15.35
2023-05-05T05:40:16.176Z,15.35
2023-05-05T05:42:52.368Z,14.40
2023-05-05T05:45:28.380Z,14.70
2023-05-05T05:48:12.277Z,15.13
2023-05-05T05:50:52.532Z,13.75
2023-05-05T05:53:29.713Z,13.77
2023-05-05T05:56:04.832Z,15.07
2023-05-05T05:58:44.477Z,14.57
2023-05-05T06:01:19.499Z,14.65
2023-05-05T06:04:00.863Z,14.57
2023-05-05T06:06:37.620Z,15.23
2023-05-05T06:09:12.516Z,15.48
2023-05-05T06:11:48.681Z,14.20
2023-05-05T06:14:22.047Z,14.82
2023-05-05T06:17:03.898Z,14.02
2023-05-05T06:19:42.572Z,13.63
2023-05-05T06:22:18.426Z,14.38
2023-05-05T06:24:54.685Z,14.57
2023-05-05T06:27:32.511Z,14.93
2023-05-05T06:30:08.166Z,14.50
2023-05-05T06:35:43.060Z,14.70
2023-05-05T06:38:17.621Z,15.35
2023-05-05T06:40:52.932Z,14.75
2023-05-05T06:43:28.203Z,13.73
2023-05-05T06:46:07.053Z,13.50
2023-05-05T06:48:43.356Z,14.35
2023-05-05T06:51:21.077Z,13.85
2023-05-05T06:53:59.343Z,15.27
2023-05-05T06:56:36.575Z,14.73
2023-05-05T06:59:19.176Z,14.13
2023-05-05T07:01:57.403Z,13.70
2023-05-05T07:04:32.810Z,13.60
2023-05-05T07:07:15.247Z,13.73
2023-05-05T07:09:48.989Z,13.82
2023-05-05T07:12:25.830Z,13.80
2023-05-05T07:15:12.189Z,14.98
2023-05-05T07:17:58.994Z,15.35
2023-05-05T07:20:34.565Z,14.03
2023-05-05T07:23:13.897Z,14.93
2023-05-05T07:25:50.786Z,14.37
2023-05-05T07:28:25.303Z,13.47
2023-05-05T07:31:05.275Z,12.83
2023-05-05T07:33:43.470Z,14.38
2023-05-05T07:36:20.951Z,13.80
2023-05-05T07:39:07.685Z,13.70
2023-05-05T07:41:43.484Z,13.07
2023-05-05T07:44:18.219Z,12.60
2023-05-05T07:46:57.867Z,12.77
2023-05-05T07:49:33.821Z,13.45
2023-05-05T07:52:07.142Z,13.52
2023-05-05T07:54:49.209Z,13.48
2023-05-05T07:57:25.343Z,12.93
2023-05-05T08:00:05.792Z,12.23
2023-05-05T08:02:48.275Z,11.88
2023-05-05T08:05:27.869Z,13.75
2023-05-05T08:08:02.324Z,11.88
2023-05-05T08:10:40.966Z,12.68
2023-05-05T08:13:18.145Z,13.63
2023-05-05T08:15:51.652Z,12.07
2023-05-05T08:18:26.406Z,12.75
2023-05-05T08:21:01.174Z,13.15
2023-05-05T08:23:38.408Z,13.23
2023-05-05T08:26:16.273Z,13.25
2023-05-05T08:28:52.065Z,13.25
2023-05-05T08:31:30.312Z,12.10
2023-05-05T08:34:05.100Z,13.03
2023-05-05T08:36:42.430Z,13.32
2023-05-05T08:39:20.825Z,12.68
2023-05-05T08:41:57.421Z,13.15
2023-05-05T08:44:36.624Z,11.97
2023-05-05T08:47:12.889Z,12.53
2023-05-05T08:49:55.591Z,13.07
2023-05-05T08:52:47.635Z,12.67
2023-05-05T08:55:27.972Z,12.60
2023-05-05T08:58:07.891Z,12.83
2023-05-05T09:00:49.704Z,12.20
2023-05-05T09:03:29.298Z,12.97
2023-05-05T09:06:05.875Z,11.90
2023-05-05T09:08:42.560Z,11.80
2023-05-05T09:11:21.976Z,12.23
2023-05-05T09:13:57.988Z,11.23
2023-05-05T09:16:34.081Z,10.50
2023-05-05T09:19:13.690Z,11.00
2023-05-05T09:21:52.818Z,11.60
2023-05-05T09:24:25.812Z,12.63
2023-05-05T09:27:04.918Z,11.97
2023-05-05T09:29:52.136Z,11.63
2023-05-05T09:32:38.067Z,11.13
2023-05-05T09:35:25.718Z,11.40
2023-05-05T09:38:05.218Z,12.50
2023-05-05T09:40:51.701Z,10.57
2023-05-05T09:43:25.847Z,10.80
2023-05-05T09:46:14.838Z,11.73
2023-05-05T09:49:02.610Z,12.13
2023-05-05T09:51:37.806Z,12.33
2023-05-05T09:54:17.073Z,11.63
2023-05-05T09:56:53.027Z,11.57
2023-05-05T09:59:28.852Z,12.10
2023-05-05T10:02:16.964Z,12.33
2023-05-05T10:04:53.944Z,12.07
2023-05-05T10:07:31.539Z,11.80
2023-05-05T10:10:10.331Z,11.43
2023-05-05T10:12:46.554Z,12.07
2023-05-05T10:15:25.053Z,15.97
2023-05-05T10:18:08.247Z,13.80
2023-05-05T10:20:44.843Z,12.47
2023-05-05T10:23:25.878Z,12.30
2023-05-05T10:26:06.785Z,11.10
2023-05-05T10:28:53.662Z,11.37
2023-05-05T10:31:34.400Z,12.30
2023-05-05T10:34:19.170Z,12.27
2023-05-05T10:36:54.018Z,11.93
2023-05-05T10:39:29.706Z,13.03
2023-05-05T10:42:08.453Z,12.63
2023-05-05T10:44:43.188Z,12.63
2023-05-05T10:47:19.805Z,12.17
2023-05-05T10:50:15.712Z,11.97
2023-05-05T10:53:02.124Z,14.67
2023-05-05T10:58:56.051Z,12.63
2023-05-05T11:01:43.817Z,12.37
2023-05-05T11:04:26.861Z,11.40
2023-05-05T11:07:33.037Z,12.17
2023-05-05T11:10:10.503Z,13.00
2023-05-05T11:13:25.956Z,12.60
2023-05-05T11:16:03.326Z,13.60
2023-05-05T11:18:45.990Z,14.57
2023-05-05T11:21:23.501Z,12.93
2023-05-05T11:24:33.230Z,11.93
2023-05-05T11:27:11.128Z,14.00
2023-05-05T11:30:17.410Z,13.00
2023-05-05T11:33:29.902Z,14.30
2023-05-05T11:36:08.318Z,13.30
2023-05-05T11:39:10.233Z,12.97
2023-05-05T11:42:26.159Z,14.13
2023-05-05T11:45:10.140Z,14.10
2023-05-05T11:50:41.578Z,13.63
2023-05-05T11:53:23.290Z,15.17
2023-05-05T11:56:12.257Z,14.47
2023-05-05T11:58:51.866Z,14.10
2023-05-05T12:01:28.979Z,13.70
2023-05-05T12:04:10.151Z,13.43
2023-05-05T12:06:51.643Z,13.87
2023-05-05T12:09:30.768Z,14.43
2023-05-05T12:12:10.776Z,14.03
2023-05-05T12:14:55.559Z,14.07
2023-05-05T12:17:41.410Z,13.50
2023-05-05T12:20:16.596Z,14.63
2023-05-05T12:22:56.129Z,14.73
2023-05-05T12:25:43.361Z,14.40
2023-05-05T12:28:24.794Z,15.10
2023-05-05T12:31:17.747Z,13.07
2023-05-05T12:33:53.406Z,15.20
2023-05-05T12:36:29.243Z,15.77
2023-05-05T12:39:07.966Z,13.87
2023-05-05T12:41:46.797Z,14.43
2023-05-05T12:44:20.030Z,15.50
2023-05-05T12:47:17.825Z,16.17
2023-05-05T12:49:55.669Z,15.37
2023-05-05T12:52:47.050Z,14.47
2023-05-05T12:55:24.736Z,14.90
2023-05-05T12:58:07.152Z,15.13
2023-05-05T13:00:53.996Z,15.37
2023-05-05T13:03:32.850Z,15.53
2023-05-05T13:06:26.054Z,15.57
2023-05-05T13:09:07.956Z,16.07
2023-05-05T13:11:46.310Z,16.60
2023-05-05T13:14:22.593Z,14.87
2023-05-05T13:16:58.571Z,13.40
2023-05-05T13:19:37.682Z,13.70
2023-05-05T13:22:14.811Z,14.03
2023-05-05T13:24:53.033Z,12.53
2023-05-05T13:27:35.890Z,12.90
2023-05-05T13:30:12.572Z,14.03
2023-05-05T13:32:49.647Z,14.63
2023-05-05T13:35:25.933Z,13.70
2023-05-05T13:38:04.352Z,14.43
2023-05-05T13:40:45.618Z,15.80
2023-05-05T13:43:25.105Z,16.57
2023-05-05T13:46:18.700Z,17.10
2023-05-05T13:48:56.779Z,18.10
2023-05-05T13:51:39.060Z,19.37
2023-05-05T13:54:16.065Z,18.37
2023-05-05T13:57:04.506Z,18.63
2023-05-05T13:59:43.146Z,18.80
2023-05-05T14:02:22.900Z,20.33
2023-05-05T14:04:58.905Z,19.20
2023-05-05T14:07:49.870Z,18.00
2023-05-05T14:10:30.174Z,13.70
2023-05-05T14:13:17.893Z,15.33
2023-05-05T14:16:30.067Z,13.67
2023-05-05T14:19:08.632Z,13.67
2023-05-05T14:21:44.548Z,13.70
2023-05-05T14:24:20.074Z,14.70
2023-05-05T14:29:56.920Z,13.70
2023-05-05T14:32:35.171Z,12.60
2023-05-05T14:35:12.199Z,12.50
2023-05-05T14:37:45.662Z,13.07
2023-05-05T14:40:25.526Z,13.33
2023-05-05T14:43:00.446Z,13.40
2023-05-05T14:45:35.390Z,12.87
2023-05-05T14:50:57.645Z,11.37
2023-05-05T14:53:32.648Z,13.57
2023-05-05T14:56:11.220Z,11.83
2023-05-05T14:58:54.187Z,12.80
2023-05-05T15:01:31.120Z,12.70
2023-05-05T15:04:09.988Z,12.07
2023-05-05T15:06:48.774Z,13.00
2023-05-05T15:09:31.829Z,12.77
2023-05-05T15:12:10.600Z,11.60
2023-05-05T15:14:48.765Z,12.80
2023-05-05T15:17:29.716Z,12.30
2023-05-05T15:20:08.267Z,11.57
2023-05-05T15:22:49.633Z,12.13
2023-05-05T15:25:36.569Z,12.13
2023-05-05T15:28:17.584Z,11.83
2023-05-05T15:30:56.743Z,12.23
2023-05-05T15:33:32.999Z,11.80
2023-05-05T15:36:11.690Z,11.60
2023-05-05T15:38:47.275Z,12.97
2023-05-05T15:41:31.413Z,12.10
2023-05-05T15:44:09.832Z,11.27
2023-05-05T15:46:50.671Z,11.50
2023-05-05T15:49:26.967Z,11.57
2023-05-05T15:52:04.654Z,10.50
2023-05-05T15:54:41.441Z,10.97
2023-05-05T15:57:16.885Z,11.03
2023-05-05T15:59:56.560Z,11.60
2023-05-05T16:02:37.574Z,10.40
2023-05-05T16:05:14.251Z,10.87
2023-05-05T16:07:56.560Z,11.27
2023-05-05T16:10:34.840Z,11.83
2023-05-05T16:13:12.575Z,9.63
2023-05-05T16:15:52.229Z,10.60
2023-05-05T16:18:26.239Z,10.80
2023-05-05T16:21:05.649Z,11.60
2023-05-05T16:23:39.478Z,10.73
2023-05-05T16:26:15.635Z,11.13
2023-05-05T16:28:51.589Z,10.23
2023-05-05T16:31:31.285Z,9.77
2023-05-05T16:34:17.866Z,10.77
2023-05-05T16:37:11.027Z,11.13
2023-05-05T16:39:50.216Z,9.57
2023-05-05T16:42:26.290Z,10.00
2023-05-05T16:45:05.963Z,9.80
2023-05-05T16:47:45.534Z,9.40
2023-05-05T16:50:23.690Z,9.87
2023-05-05T16:52:59.508Z,9.10
2023-05-05T16:55:34.413Z,8.97
2023-05-05T16:58:12.279Z,8.90
2023-05-05T17:00:51.383Z,8.17
2023-05-05T17:03:28.763Z,8.27
2023-05-05T17:06:04.048Z,8.60
2023-05-05T17:08:40.121Z,9.03
2023-05-05T17:11:14.545Z,7.13
2023-05-05T17:13:55.075Z,7.87
2023-05-05T17:16:33.124Z,7.40
2023-05-05T17:19:11.125Z,7.83
2023-05-05T17:21:48.489Z,7.57
2023-05-05T17:24:23.826Z,7.73
2023-05-05T17:26:57.532Z,6.80
2023-05-05T17:29:43.216Z,7.37
2023-05-05T17:32:22.420Z,6.50
2023-05-05T17:35:04.207Z,7.77
2023-05-05T17:37:37.923Z,7.67
2023-05-05T17:40:14.027Z,7.23
2023-05-05T17:42:51.459Z,7.00
2023-05-05T17:45:29.288Z,7.50
2023-05-05T17:48:06.500Z,7.57
2023-05-05T17:50:46.660Z,6.87
2023-05-05T17:53:25.066Z,6.73
2023-05-05T17:55:59.401Z,6.67
2023-05-05T17:58:37.551Z,6.40
2023-05-05T18:01:26.074Z,6.20
2023-05-05T18:04:18.480Z,6.30
2023-05-05T18:06:58.126Z,6.67
2023-05-05T18:09:37.372Z,7.30
2023-05-05T18:12:21.193Z,6.77
2023-05-05T18:14:56.737Z,6.47
2023-05-05T18:17:30.583Z,7.33
2023-05-05T18:20:05.666Z,7.07
2023-05-05T18:22:42.267Z,6.37
2023-05-05T18:25:17.736Z,6.27
2023-05-05T18:27:52.828Z,6.60
2023-05-05T18:30:27.590Z,6.13
2023-05-05T18:33:01.823Z,6.13
2023-05-05T18:35:38.474Z,6.13
2023-05-05T18:38:14.183Z,6.30
2023-05-05T18:40:50.423Z,6.70
2023-05-05T18:43:27.572Z,7.27
2023-05-05T18:46:10.857Z,6.43
2023-05-05T18:48:46.750Z,6.60
2023-05-05T18:51:22.295Z,6.90
2023-05-05T18:54:04.015Z,7.27
2023-05-05T18:56:40.265Z,7.10
2023-05-05T18:59:17.679Z,6.43
2023-05-05T19:01:59.430Z,6.50
2023-05-05T19:04:34.502Z,7.30
2023-05-05T19:07:14.493Z,6.70
2023-05-05T19:09:59.559Z,7.27
2023-05-05T19:12:34.084Z,6.57
2023-05-05T19:15:11.074Z,6.60
2023-05-05T19:17:47.650Z,7.07
2023-05-05T19:20:24.223Z,6.93
2023-05-05T19:23:06.357Z,6.97
2023-05-05T19:25:57.256Z,5.97
2023-05-05T19:28:31.678Z,8.27
2023-05-05T19:31:05.733Z,7.00
2023-05-05T19:33:42.064Z,6.47
2023-05-05T19:39:30.044Z,7.57
2023-05-05T19:42:05.236Z,7.20
2023-05-05T19:44:40.740Z,6.60
2023-05-05T19:47:18.624Z,6.93
2023-05-05T19:49:53.834Z,6.93
2023-05-05T19:52:32.735Z,7.00
2023-05-05T19:55:11.574Z,7.17
2023-05-05T19:57:49.641Z,7.30
2023-05-05T20:00:30.334Z,7.40
2023-05-05T20:03:03.699Z,8.30
2023-05-05T20:05:43.608Z,7.40
2023-05-05T20:08:21.414Z,7.17
2023-05-05T20:10:59.120Z,7.63
2023-05-05T20:13:36.193Z,7.90
2023-05-05T20:16:14.798Z,7.53
2023-05-05T20:18:56.481Z,7.43
2023-05-05T20:21:30.358Z,7.27
2023-05-05T20:24:14.057Z,8.10
2023-05-05T20:27:04.937Z,7.50
2023-05-05T20:29:55.473Z,7.47
2023-05-05T20:32:34.342Z,7.37
2023-05-05T20:35:11.128Z,7.53
2023-05-05T20:37:46.965Z,7.60
2023-05-05T20:40:34.946Z,8.43
2023-05-05T20:43:16.828Z,7.27
2023-05-05T20:45:53.496Z,7.77
2023-05-05T20:48:31.721Z,7.80
2023-05-05T20:51:15.656Z,7.20
2023-05-05T20:53:53.045Z,8.67
2023-05-05T20:56:28.725Z,8.50
2023-05-05T20:59:06.285Z,7.90
2023-05-05T21:01:44.565Z,7.60
2023-05-05T21:04:20.561Z,7.47
2023-05-05T21:06:55.941Z,8.27
2023-05-05T21:09:38.099Z,8.17
2023-05-05T21:12:15.664Z,8.47
2023-05-05T21:14:55.491Z,8.97
2023-05-05T21:17:37.356Z,8.73
2023-05-05T21:20:12.110Z,7.83
2023-05-05T21:22:51.013Z,8.00
2023-05-05T21:25:34.535Z,8.20
2023-05-05T21:28:09.736Z,7.90
2023-05-05T21:30:45.199Z,8.47
2023-05-05T21:33:27.635Z,8.20
2023-05-05T21:36:22.282Z,7.63
2023-05-05T21:39:11.103Z,8.50
2023-05-05T21:41:45.591Z,8.40
2023-05-05T21:44:22.156Z,8.60
2023-05-05T21:47:01.876Z,8.87
2023-05-05T21:49:37.886Z,8.53
2023-05-05T21:52:15.967Z,8.77
2023-05-05T21:54:55.471Z,8.77
2023-05-05T21:57:31.266Z,9.20
2023-05-05T22:00:04.946Z,10.43
2023-05-05T22:02:48.220Z,9.73
2023-05-05T22:05:26.590Z,9.30
2023-05-05T22:08:04.738Z,10.40
2023-05-05T22:10:40.684Z,9.67
2023-05-05T22:13:19.625Z,11.03
2023-05-05T22:15:56.478Z,11.00
2023-05-05T22:18:36.965Z,11.40
2023-05-05T22:21:14.156Z,11.33
2023-05-05T22:23:47.862Z,11.50
2023-05-05T22:26:27.410Z,11.80
2023-05-05T22:29:02.250Z,11.27
2023-05-05T22:31:40.687Z,12.10
2023-05-05T22:34:25.061Z,12.50
2023-05-05T22:37:10.478Z,11.17
2023-05-05T22:39:46.274Z,11.70
2023-05-05T22:42:20.072Z,11.73
2023-05-05T22:44:54.923Z,11.73
2023-05-05T22:47:47.117Z,11.73
2023-05-05T22:50:26.383Z,11.93
2023-05-05T22:53:03.373Z,11.37
2023-05-05T22:55:41.651Z,11.70
2023-05-05T22:58:19.944Z,11.33
2023-05-05T23:00:53.706Z,11.63
2023-05-05T23:03:26.652Z,11.67
2023-05-05T23:06:10.956Z,10.67
2023-05-05T23:09:06.902Z,11.37
2023-05-05T23:11:43.329Z,11.10
2023-05-05T23:14:18.739Z,10.00
2023-05-05T23:16:55.018Z,9.97
2023-05-05T23:19:33.862Z,9.77
2023-05-05T23:22:07.716Z,9.93
2023-05-05T23:24:50.109Z,9.80
2023-05-05T23:27:26.909Z,9.70
2023-05-05T23:30:01.018Z,8.53
2023-05-05T23:33:07.972Z,8.80
2023-05-05T23:35:44.927Z,8.57
2023-05-05T23:38:18.287Z,8.57
2023-05-05T23:40:55.112Z,8.77
2023-05-05T23:43:28.051Z,8.43
2023-05-05T23:46:05.410Z,10.10
2023-05-05T23:48:41.812Z,9.50
2023-05-05T23:51:18.919Z,9.70
2023-05-05T23:53:55.527Z,8.83
2023-05-05T23:56:31.775Z,10.00
2023-05-05T23:59:12.699Z,9.97
